sensor_id;sensor_type;location;lat;lon;timestamp;temperature;humidity
11908;DHT22;6014;47.690;9.130;2023-12-20T00:01:58;5.50;99.90
11908;DHT22;6014;47.690;9.130;2023-12-20T00:04:27;5.60;99.90
11908;DHT22;6014;47.690;9.130;2023-12-20T00:06:59;5.60;99.90
11908;DHT22;6014;47.690;9.130;2023-12-20T00:09:33;5.60;99.90
11908;DHT22;6014;47.690;9.130;2023-12-20T00:12:02;5.60;99.90
11908;DHT22;6014;47.690;9.130;2023-12-20T00:14:30;5.60;99.90
11908;DHT22;6014;47.690;9.130;2023-12-20T00:16:59;5.70;99.90
11908;DHT22;6014;47.690;9.130;2023-12-20T00:19:34;5.70;99.90
11908;DHT22;6014;47.690;9.130;2023-12-20T00:22:14;5.60;99.90
11908;DHT22;6014;47.690;9.130;2023-12-20T00:24:44;5.60;99.90
11908;DHT22;6014;47.690;9.130;2023-12-20T00:27:12;5.70;99.90
11908;DHT22;6014;47.690;9.130;2023-12-20T00:29:41;5.60;99.90
11908;DHT22;6014;47.690;9.130;2023-12-20T00:32:14;5.60;99.90
11908;DHT22;6014;47.690;9.130;2023-12-20T00:34:43;5.60;99.90
11908;DHT22;6014;47.690;9.130;2023-12-20T00:37:12;5.50;99.90
11908;DHT22;6014;47.690;9.130;2023-12-20T00:39:41;5.50;99.90
11908;DHT22;6014;47.690;9.130;2023-12-20T00:42:10;5.50;99.90
11908;DHT22;6014;47.690;9.130;2023-12-20T00:44:39;5.50;99.90
11908;DHT22;6014;47.690;9.130;2023-12-20T00:47:07;5.50;99.90
11908;DHT22;6014;47.690;9.130;2023-12-20T00:49:36;5.50;99.90
11908;DHT22;6014;47.690;9.130;2023-12-20T00:52:05;5.60;99.90
11908;DHT22;6014;47.690;9.130;2023-12-20T00:54:34;5.60;99.90
11908;DHT22;6014;47.690;9.130;2023-12-20T00:57:02;5.60;99.90
11908;DHT22;6014;47.690;9.130;2023-12-20T00:59:32;5.60;99.90
11908;DHT22;6014;47.690;9.130;2023-12-20T01:02:01;5.60;99.90
11908;DHT22;6014;47.690;9.130;2023-12-20T01:04:32;5.60;99.90
11908;DHT22;6014;47.690;9.130;2023-12-20T01:07:00;5.70;99.90
11908;DHT22;6014;47.690;9.130;2023-12-20T01:09:29;5.60;99.90
11908;DHT22;6014;47.690;9.130;2023-12-20T01:11:57;5.60;99.90
11908;DHT22;6014;47.690;9.130;2023-12-20T01:14:25;5.60;99.90
11908;DHT22;6014;47.690;9.130;2023-12-20T01:16:55;5.60;99.90
11908;DHT22;6014;47.690;9.130;2023-12-20T01:19:24;5.50;99.90
11908;DHT22;6014;47.690;9.130;2023-12-20T01:21:54;5.50;99.90
11908;DHT22;6014;47.690;9.130;2023-12-20T01:24:22;5.40;99.90
11908;DHT22;6014;47.690;9.130;2023-12-20T01:26:51;5.40;99.90
11908;DHT22;6014;47.690;9.130;2023-12-20T01:29:19;5.60;99.90
11908;DHT22;6014;47.690;9.130;2023-12-20T01:31:47;5.60;99.90
11908;DHT22;6014;47.690;9.130;2023-12-20T01:34:17;5.60;99.90
11908;DHT22;6014;47.690;9.130;2023-12-20T01:36:46;5.70;99.90
11908;DHT22;6014;47.690;9.130;2023-12-20T01:39:14;5.60;99.90
11908;DHT22;6014;47.690;9.130;2023-12-20T01:41:54;5.70;99.90
11908;DHT22;6014;47.690;9.130;2023-12-20T01:44:22;5.70;99.90
11908;DHT22;6014;47.690;9.130;2023-12-20T01:46:51;5.70;99.90
11908;DHT22;6014;47.690;9.130;2023-12-20T01:49:21;5.80;99.90
11908;DHT22;6014;47.690;9.130;2023-12-20T01:51:50;5.80;99.90
11908;DHT22;6014;47.690;9.130;2023-12-20T01:54:19;5.90;99.90
11908;DHT22;6014;47.690;9.130;2023-12-20T01:56:49;6.00;99.90
11908;DHT22;6014;47.690;9.130;2023-12-20T01:59:18;6.00;99.90
11908;DHT22;6014;47.690;9.130;2023-12-20T02:01:46;6.00;99.90
11908;DHT22;6014;47.690;9.130;2023-12-20T02:04:16;5.90;99.90
11908;DHT22;6014;47.690;9.130;2023-12-20T02:06:46;5.90;99.90
11908;DHT22;6014;47.690;9.130;2023-12-20T02:09:15;5.80;99.90
11908;DHT22;6014;47.690;9.130;2023-12-20T02:11:44;5.80;99.90
11908;DHT22;6014;47.690;9.130;2023-12-20T02:14:12;5.90;99.90
11908;DHT22;6014;47.690;9.130;2023-12-20T02:16:41;5.90;99.90
11908;DHT22;6014;47.690;9.130;2023-12-20T02:19:13;5.80;99.90
11908;DHT22;6014;47.690;9.130;2023-12-20T02:21:44;5.80;99.90
11908;DHT22;6014;47.690;9.130;2023-12-20T02:24:12;5.90;99.90
11908;DHT22;6014;47.690;9.130;2023-12-20T02:26:40;5.90;99.90
11908;DHT22;6014;47.690;9.130;2023-12-20T02:29:21;5.90;99.90
11908;DHT22;6014;47.690;9.130;2023-12-20T02:31:49;5.90;99.90
11908;DHT22;6014;47.690;9.130;2023-12-20T02:34:18;5.90;99.90
11908;DHT22;6014;47.690;9.130;2023-12-20T02:36:48;5.90;99.90
11908;DHT22;6014;47.690;9.130;2023-12-20T02:39:16;5.90;99.90
11908;DHT22;6014;47.690;9.130;2023-12-20T02:41:56;5.90;99.90
11908;DHT22;6014;47.690;9.130;2023-12-20T02:44:24;5.90;99.90
11908;DHT22;6014;47.690;9.130;2023-12-20T02:46:53;5.90;99.90
11908;DHT22;6014;47.690;9.130;2023-12-20T02:49:21;5.80;99.90
11908;DHT22;6014;47.690;9.130;2023-12-20T02:51:58;5.90;99.90
11908;DHT22;6014;47.690;9.130;2023-12-20T02:54:32;5.80;99.90
11908;DHT22;6014;47.690;9.130;2023-12-20T02:57:01;5.80;99.90
11908;DHT22;6014;47.690;9.130;2023-12-20T02:59:29;5.80;99.90
11908;DHT22;6014;47.690;9.130;2023-12-20T03:01:58;5.90;99.90
11908;DHT22;6014;47.690;9.130;2023-12-20T03:04:26;5.90;99.90
11908;DHT22;6014;47.690;9.130;2023-12-20T03:06:55;6.00;99.90
11908;DHT22;6014;47.690;9.130;2023-12-20T03:09:24;6.00;99.90
11908;DHT22;6014;47.690;9.130;2023-12-20T03:11:53;6.00;99.90
11908;DHT22;6014;47.690;9.130;2023-12-20T03:14:34;6.00;99.90
11908;DHT22;6014;47.690;9.130;2023-12-20T03:17:03;6.00;99.90
11908;DHT22;6014;47.690;9.130;2023-12-20T03:19:31;6.10;99.90
11908;DHT22;6014;47.690;9.130;2023-12-20T03:22:00;6.00;99.90
11908;DHT22;6014;47.690;9.130;2023-12-20T03:24:30;5.90;99.90
11908;DHT22;6014;47.690;9.130;2023-12-20T03:26:58;5.80;99.90
11908;DHT22;6014;47.690;9.130;2023-12-20T03:29:26;5.80;99.90
11908;DHT22;6014;47.690;9.130;2023-12-20T03:31:55;5.70;99.90
11908;DHT22;6014;47.690;9.130;2023-12-20T03:34:23;5.60;99.90
11908;DHT22;6014;47.690;9.130;2023-12-20T03:36:51;5.60;99.90
11908;DHT22;6014;47.690;9.130;2023-12-20T03:39:26;5.60;99.90
11908;DHT22;6014;47.690;9.130;2023-12-20T03:41:56;5.50;99.90
11908;DHT22;6014;47.690;9.130;2023-12-20T03:44:24;5.50;99.90
11908;DHT22;6014;47.690;9.130;2023-12-20T03:46:52;5.40;99.90
11908;DHT22;6014;47.690;9.130;2023-12-20T03:49:21;5.30;99.90
11908;DHT22;6014;47.690;9.130;2023-12-20T03:51:49;5.30;99.90
11908;DHT22;6014;47.690;9.130;2023-12-20T03:54:17;5.20;99.90
11908;DHT22;6014;47.690;9.130;2023-12-20T03:56:46;5.20;99.90
11908;DHT22;6014;47.690;9.130;2023-12-20T03:59:15;5.20;99.90
11908;DHT22;6014;47.690;9.130;2023-12-20T04:01:44;5.30;99.90
11908;DHT22;6014;47.690;9.130;2023-12-20T04:04:13;5.20;99.90
11908;DHT22;6014;47.690;9.130;2023-12-20T04:06:42;5.20;99.90
11908;DHT22;6014;47.690;9.130;2023-12-20T04:09:10;5.20;99.90
11908;DHT22;6014;47.690;9.130;2023-12-20T04:11:39;5.30;99.90
11908;DHT22;6014;47.690;9.130;2023-12-20T04:14:07;5.30;99.90
11908;DHT22;6014;47.690;9.130;2023-12-20T04:16:38;5.30;99.90
11908;DHT22;6014;47.690;9.130;2023-12-20T04:19:10;5.30;99.90
11908;DHT22;6014;47.690;9.130;2023-12-20T04:21:38;5.20;99.90
11908;DHT22;6014;47.690;9.130;2023-12-20T04:24:07;5.20;99.90
11908;DHT22;6014;47.690;9.130;2023-12-20T04:26:36;5.20;99.90
11908;DHT22;6014;47.690;9.130;2023-12-20T04:29:04;5.20;99.90
11908;DHT22;6014;47.690;9.130;2023-12-20T04:31:32;5.20;99.90
11908;DHT22;6014;47.690;9.130;2023-12-20T04:34:02;5.20;99.90
11908;DHT22;6014;47.690;9.130;2023-12-20T04:36:30;5.20;99.90
11908;DHT22;6014;47.690;9.130;2023-12-20T04:38:59;5.20;99.90
11908;DHT22;6014;47.690;9.130;2023-12-20T04:41:27;5.10;99.90
11908;DHT22;6014;47.690;9.130;2023-12-20T04:43:55;5.10;99.90
11908;DHT22;6014;47.690;9.130;2023-12-20T04:46:24;5.10;99.90
11908;DHT22;6014;47.690;9.130;2023-12-20T04:48:52;5.10;99.90
11908;DHT22;6014;47.690;9.130;2023-12-20T04:51:22;5.00;99.90
11908;DHT22;6014;47.690;9.130;2023-12-20T04:53:50;5.10;99.90
11908;DHT22;6014;47.690;9.130;2023-12-20T04:56:19;5.10;99.90
11908;DHT22;6014;47.690;9.130;2023-12-20T04:58:47;5.00;99.90
11908;DHT22;6014;47.690;9.130;2023-12-20T05:01:20;5.00;99.90
11908;DHT22;6014;47.690;9.130;2023-12-20T05:03:49;5.00;99.90
11908;DHT22;6014;47.690;9.130;2023-12-20T05:06:18;5.00;99.90
11908;DHT22;6014;47.690;9.130;2023-12-20T05:08:47;4.90;99.90
11908;DHT22;6014;47.690;9.130;2023-12-20T05:11:16;5.00;99.90
11908;DHT22;6014;47.690;9.130;2023-12-20T05:13:44;5.00;99.90
11908;DHT22;6014;47.690;9.130;2023-12-20T05:16:19;5.00;99.90
11908;DHT22;6014;47.690;9.130;2023-12-20T05:18:49;5.10;99.90
11908;DHT22;6014;47.690;9.130;2023-12-20T05:21:19;5.10;99.90
11908;DHT22;6014;47.690;9.130;2023-12-20T05:23:49;5.00;99.90
11908;DHT22;6014;47.690;9.130;2023-12-20T05:26:17;5.00;99.90
11908;DHT22;6014;47.690;9.130;2023-12-20T05:28:46;5.10;99.90
11908;DHT22;6014;47.690;9.130;2023-12-20T05:31:14;5.10;99.90
11908;DHT22;6014;47.690;9.130;2023-12-20T05:33:43;5.10;99.90
11908;DHT22;6014;47.690;9.130;2023-12-20T05:36:11;5.10;99.90
11908;DHT22;6014;47.690;9.130;2023-12-20T05:38:42;5.00;99.90
11908;DHT22;6014;47.690;9.130;2023-12-20T05:41:11;5.00;99.90
11908;DHT22;6014;47.690;9.130;2023-12-20T05:43:40;5.10;99.90
11908;DHT22;6014;47.690;9.130;2023-12-20T05:46:10;5.10;99.90
11908;DHT22;6014;47.690;9.130;2023-12-20T05:48:39;5.10;99.90
11908;DHT22;6014;47.690;9.130;2023-12-20T05:51:07;5.10;99.90
11908;DHT22;6014;47.690;9.130;2023-12-20T05:53:38;5.20;99.90
11908;DHT22;6014;47.690;9.130;2023-12-20T05:56:07;5.10;99.90
11908;DHT22;6014;47.690;9.130;2023-12-20T05:58:38;5.10;99.90
11908;DHT22;6014;47.690;9.130;2023-12-20T06:01:07;5.20;99.90
11908;DHT22;6014;47.690;9.130;2023-12-20T06:03:36;5.20;99.90
11908;DHT22;6014;47.690;9.130;2023-12-20T06:06:07;5.20;99.90
11908;DHT22;6014;47.690;9.130;2023-12-20T06:08:43;5.20;99.90
11908;DHT22;6014;47.690;9.130;2023-12-20T06:11:11;5.20;99.90
11908;DHT22;6014;47.690;9.130;2023-12-20T06:13:42;5.20;99.90
11908;DHT22;6014;47.690;9.130;2023-12-20T06:16:10;5.20;99.90
11908;DHT22;6014;47.690;9.130;2023-12-20T06:18:38;5.30;99.90
11908;DHT22;6014;47.690;9.130;2023-12-20T06:21:07;5.30;99.90
11908;DHT22;6014;47.690;9.130;2023-12-20T06:23:39;5.30;99.90
11908;DHT22;6014;47.690;9.130;2023-12-20T06:26:07;5.30;99.90
11908;DHT22;6014;47.690;9.130;2023-12-20T06:28:36;5.40;99.90
11908;DHT22;6014;47.690;9.130;2023-12-20T06:31:09;5.40;99.90
11908;DHT22;6014;47.690;9.130;2023-12-20T06:33:38;5.40;99.90
11908;DHT22;6014;47.690;9.130;2023-12-20T06:36:10;5.40;99.90
11908;DHT22;6014;47.690;9.130;2023-12-20T06:38:38;5.50;99.90
11908;DHT22;6014;47.690;9.130;2023-12-20T06:41:08;5.50;99.90
11908;DHT22;6014;47.690;9.130;2023-12-20T06:43:39;5.70;99.90
11908;DHT22;6014;47.690;9.130;2023-12-20T06:46:17;5.70;99.90
11908;DHT22;6014;47.690;9.130;2023-12-20T06:48:46;5.80;99.90
11908;DHT22;6014;47.690;9.130;2023-12-20T06:51:15;5.80;99.90
11908;DHT22;6014;47.690;9.130;2023-12-20T06:53:44;5.90;99.90
11908;DHT22;6014;47.690;9.130;2023-12-20T06:56:13;5.80;99.90
11908;DHT22;6014;47.690;9.130;2023-12-20T06:58:45;5.90;99.90
11908;DHT22;6014;47.690;9.130;2023-12-20T07:01:14;5.90;99.90
11908;DHT22;6014;47.690;9.130;2023-12-20T07:03:44;5.80;99.90
11908;DHT22;6014;47.690;9.130;2023-12-20T07:06:12;5.80;99.90
11908;DHT22;6014;47.690;9.130;2023-12-20T07:08:43;5.80;99.90
11908;DHT22;6014;47.690;9.130;2023-12-20T07:11:12;5.80;99.90
11908;DHT22;6014;47.690;9.130;2023-12-20T07:13:40;5.80;99.90
11908;DHT22;6014;47.690;9.130;2023-12-20T07:16:08;5.80;99.90
11908;DHT22;6014;47.690;9.130;2023-12-20T07:18:37;5.80;99.90
11908;DHT22;6014;47.690;9.130;2023-12-20T07:21:07;5.80;99.90
11908;DHT22;6014;47.690;9.130;2023-12-20T07:23:35;5.80;99.90
11908;DHT22;6014;47.690;9.130;2023-12-20T07:26:04;5.80;99.90
11908;DHT22;6014;47.690;9.130;2023-12-20T07:28:32;5.80;99.90
11908;DHT22;6014;47.690;9.130;2023-12-20T07:31:01;5.80;99.90
11908;DHT22;6014;47.690;9.130;2023-12-20T07:33:30;5.90;99.90
11908;DHT22;6014;47.690;9.130;2023-12-20T07:36:07;5.90;99.90
11908;DHT22;6014;47.690;9.130;2023-12-20T07:38:35;5.90;99.90
11908;DHT22;6014;47.690;9.130;2023-12-20T07:41:04;6.00;99.90
11908;DHT22;6014;47.690;9.130;2023-12-20T07:43:33;6.00;99.90
11908;DHT22;6014;47.690;9.130;2023-12-20T07:46:04;6.10;99.90
11908;DHT22;6014;47.690;9.130;2023-12-20T07:48:34;6.10;99.90
11908;DHT22;6014;47.690;9.130;2023-12-20T07:51:04;6.10;99.90
11908;DHT22;6014;47.690;9.130;2023-12-20T07:53:35;6.00;99.90
11908;DHT22;6014;47.690;9.130;2023-12-20T07:56:13;6.10;99.90
11908;DHT22;6014;47.690;9.130;2023-12-20T07:58:43;6.10;99.90
11908;DHT22;6014;47.690;9.130;2023-12-20T08:01:19;6.10;99.90
11908;DHT22;6014;47.690;9.130;2023-12-20T08:03:49;6.10;99.90
11908;DHT22;6014;47.690;9.130;2023-12-20T08:06:19;6.20;99.90
11908;DHT22;6014;47.690;9.130;2023-12-20T08:08:49;6.20;99.90
11908;DHT22;6014;47.690;9.130;2023-12-20T08:11:28;6.30;99.90
11908;DHT22;6014;47.690;9.130;2023-12-20T08:13:56;6.20;99.90
11908;DHT22;6014;47.690;9.130;2023-12-20T08:16:25;6.30;99.90
11908;DHT22;6014;47.690;9.130;2023-12-20T08:18:54;6.40;99.90
11908;DHT22;6014;47.690;9.130;2023-12-20T08:21:22;6.50;99.90
11908;DHT22;6014;47.690;9.130;2023-12-20T08:23:52;6.60;99.90
11908;DHT22;6014;47.690;9.130;2023-12-20T08:26:20;6.40;99.90
11908;DHT22;6014;47.690;9.130;2023-12-20T08:28:51;6.40;99.90
11908;DHT22;6014;47.690;9.130;2023-12-20T08:31:19;6.50;99.90
11908;DHT22;6014;47.690;9.130;2023-12-20T08:33:49;6.50;99.90
11908;DHT22;6014;47.690;9.130;2023-12-20T08:36:18;6.50;99.90
11908;DHT22;6014;47.690;9.130;2023-12-20T08:38:48;6.60;99.90
11908;DHT22;6014;47.690;9.130;2023-12-20T08:41:18;6.60;99.90
11908;DHT22;6014;47.690;9.130;2023-12-20T08:43:47;6.60;99.90
11908;DHT22;6014;47.690;9.130;2023-12-20T08:46:15;6.70;99.90
11908;DHT22;6014;47.690;9.130;2023-12-20T08:48:44;6.70;99.90
11908;DHT22;6014;47.690;9.130;2023-12-20T08:51:14;6.70;99.90
11908;DHT22;6014;47.690;9.130;2023-12-20T08:53:42;6.80;99.90
11908;DHT22;6014;47.690;9.130;2023-12-20T08:56:12;6.70;99.90
11908;DHT22;6014;47.690;9.130;2023-12-20T08:58:42;6.70;99.90
11908;DHT22;6014;47.690;9.130;2023-12-20T09:01:10;6.70;99.90
11908;DHT22;6014;47.690;9.130;2023-12-20T09:03:39;6.70;99.90
11908;DHT22;6014;47.690;9.130;2023-12-20T09:06:08;6.70;99.90
11908;DHT22;6014;47.690;9.130;2023-12-20T09:08:36;6.70;99.90
11908;DHT22;6014;47.690;9.130;2023-12-20T09:11:04;6.80;99.90
11908;DHT22;6014;47.690;9.130;2023-12-20T09:13:34;6.80;99.90
11908;DHT22;6014;47.690;9.130;2023-12-20T09:16:05;6.80;99.90
11908;DHT22;6014;47.690;9.130;2023-12-20T09:18:34;6.80;99.90
11908;DHT22;6014;47.690;9.130;2023-12-20T09:21:02;6.80;99.90
11908;DHT22;6014;47.690;9.130;2023-12-20T09:23:30;6.80;99.90
11908;DHT22;6014;47.690;9.130;2023-12-20T09:25:59;6.90;99.90
11908;DHT22;6014;47.690;9.130;2023-12-20T09:28:27;6.80;99.90
11908;DHT22;6014;47.690;9.130;2023-12-20T09:30:56;6.80;99.90
11908;DHT22;6014;47.690;9.130;2023-12-20T09:33:26;6.90;99.90
11908;DHT22;6014;47.690;9.130;2023-12-20T09:35:54;6.90;99.90
11908;DHT22;6014;47.690;9.130;2023-12-20T09:38:23;7.00;99.90
11908;DHT22;6014;47.690;9.130;2023-12-20T09:40:51;7.00;99.90
11908;DHT22;6014;47.690;9.130;2023-12-20T09:43:33;6.90;99.90
11908;DHT22;6014;47.690;9.130;2023-12-20T09:46:12;6.90;99.90
11908;DHT22;6014;47.690;9.130;2023-12-20T09:48:45;6.90;99.90
11908;DHT22;6014;47.690;9.130;2023-12-20T09:51:13;6.90;99.90
11908;DHT22;6014;47.690;9.130;2023-12-20T09:53:43;6.80;99.90
11908;DHT22;6014;47.690;9.130;2023-12-20T09:56:13;6.90;99.90
11908;DHT22;6014;47.690;9.130;2023-12-20T09:58:41;6.80;99.90
11908;DHT22;6014;47.690;9.130;2023-12-20T10:01:10;6.90;99.90
11908;DHT22;6014;47.690;9.130;2023-12-20T10:03:39;6.90;99.90
11908;DHT22;6014;47.690;9.130;2023-12-20T10:06:10;6.90;99.90
11908;DHT22;6014;47.690;9.130;2023-12-20T10:08:39;7.00;99.90
11908;DHT22;6014;47.690;9.130;2023-12-20T10:11:07;6.90;99.90
11908;DHT22;6014;47.690;9.130;2023-12-20T10:13:39;7.00;99.90
11908;DHT22;6014;47.690;9.130;2023-12-20T10:16:08;7.00;99.90
11908;DHT22;6014;47.690;9.130;2023-12-20T10:18:36;7.10;99.90
11908;DHT22;6014;47.690;9.130;2023-12-20T10:21:06;7.10;99.90
11908;DHT22;6014;47.690;9.130;2023-12-20T10:23:38;7.20;99.90
11908;DHT22;6014;47.690;9.130;2023-12-20T10:26:08;7.30;99.90
11908;DHT22;6014;47.690;9.130;2023-12-20T10:28:37;7.30;99.90
11908;DHT22;6014;47.690;9.130;2023-12-20T10:31:06;7.20;99.90
11908;DHT22;6014;47.690;9.130;2023-12-20T10:33:34;7.20;99.90
11908;DHT22;6014;47.690;9.130;2023-12-20T10:36:03;7.20;99.90
11908;DHT22;6014;47.690;9.130;2023-12-20T10:38:33;7.30;99.90
11908;DHT22;6014;47.690;9.130;2023-12-20T10:41:09;7.40;99.90
11908;DHT22;6014;47.690;9.130;2023-12-20T10:43:45;7.40;99.90
11908;DHT22;6014;47.690;9.130;2023-12-20T10:46:16;7.20;99.90
11908;DHT22;6014;47.690;9.130;2023-12-20T10:48:45;7.30;99.90
11908;DHT22;6014;47.690;9.130;2023-12-20T10:51:18;7.40;99.90
11908;DHT22;6014;47.690;9.130;2023-12-20T10:53:47;7.40;99.90
11908;DHT22;6014;47.690;9.130;2023-12-20T10:56:19;7.50;99.90
11908;DHT22;6014;47.690;9.130;2023-12-20T10:58:50;7.60;99.90
11908;DHT22;6014;47.690;9.130;2023-12-20T11:01:19;8.00;99.90
11908;DHT22;6014;47.690;9.130;2023-12-20T11:03:49;8.10;99.90
11908;DHT22;6014;47.690;9.130;2023-12-20T11:06:29;8.10;99.90
11908;DHT22;6014;47.690;9.130;2023-12-20T11:09:10;8.20;99.90
11908;DHT22;6014;47.690;9.130;2023-12-20T11:11:55;8.20;99.90
11908;DHT22;6014;47.690;9.130;2023-12-20T11:14:31;8.40;99.90
11908;DHT22;6014;47.690;9.130;2023-12-20T11:17:06;8.40;99.90
11908;DHT22;6014;47.690;9.130;2023-12-20T11:19:38;8.30;99.90
11908;DHT22;6014;47.690;9.130;2023-12-20T11:22:06;8.20;99.90
11908;DHT22;6014;47.690;9.130;2023-12-20T11:24:35;8.20;99.90
11908;DHT22;6014;47.690;9.130;2023-12-20T11:27:06;8.00;99.90
11908;DHT22;6014;47.690;9.130;2023-12-20T11:29:35;8.20;99.90
11908;DHT22;6014;47.690;9.130;2023-12-20T11:32:29;8.30;99.90
11908;DHT22;6014;47.690;9.130;2023-12-20T11:34:59;8.30;99.90
11908;DHT22;6014;47.690;9.130;2023-12-20T11:37:29;8.60;99.90
11908;DHT22;6014;47.690;9.130;2023-12-20T11:40:02;8.70;99.90
11908;DHT22;6014;47.690;9.130;2023-12-20T11:42:38;8.90;99.90
11908;DHT22;6014;47.690;9.130;2023-12-20T11:45:09;8.80;99.90
11908;DHT22;6014;47.690;9.130;2023-12-20T11:47:38;8.90;99.90
11908;DHT22;6014;47.690;9.130;2023-12-20T11:50:07;8.80;99.90
11908;DHT22;6014;47.690;9.130;2023-12-20T11:52:35;8.80;99.90
11908;DHT22;6014;47.690;9.130;2023-12-20T11:55:04;8.60;99.90
11908;DHT22;6014;47.690;9.130;2023-12-20T11:57:36;8.60;99.90
11908;DHT22;6014;47.690;9.130;2023-12-20T12:00:05;8.90;99.90
11908;DHT22;6014;47.690;9.130;2023-12-20T12:02:35;8.90;99.90
11908;DHT22;6014;47.690;9.130;2023-12-20T12:05:03;9.00;99.90
11908;DHT22;6014;47.690;9.130;2023-12-20T12:07:34;9.50;99.90
11908;DHT22;6014;47.690;9.130;2023-12-20T12:10:03;9.40;99.90
11908;DHT22;6014;47.690;9.130;2023-12-20T12:12:32;9.20;99.90
11908;DHT22;6014;47.690;9.130;2023-12-20T12:15:02;9.30;99.90
11908;DHT22;6014;47.690;9.130;2023-12-20T12:17:30;9.30;99.90
11908;DHT22;6014;47.690;9.130;2023-12-20T12:20:04;9.30;99.90
11908;DHT22;6014;47.690;9.130;2023-12-20T12:22:33;9.00;99.90
11908;DHT22;6014;47.690;9.130;2023-12-20T12:25:10;8.90;99.90
11908;DHT22;6014;47.690;9.130;2023-12-20T12:27:40;8.90;99.90
11908;DHT22;6014;47.690;9.130;2023-12-20T12:30:11;8.80;99.90
11908;DHT22;6014;47.690;9.130;2023-12-20T12:32:40;8.40;99.90
11908;DHT22;6014;47.690;9.130;2023-12-20T12:35:09;8.30;99.90
11908;DHT22;6014;47.690;9.130;2023-12-20T12:37:38;8.30;99.90
11908;DHT22;6014;47.690;9.130;2023-12-20T12:40:10;8.50;99.90
11908;DHT22;6014;47.690;9.130;2023-12-20T12:42:40;8.40;99.90
11908;DHT22;6014;47.690;9.130;2023-12-20T12:45:11;8.30;99.90
11908;DHT22;6014;47.690;9.130;2023-12-20T12:47:40;8.20;99.90
11908;DHT22;6014;47.690;9.130;2023-12-20T12:50:09;8.10;99.90
11908;DHT22;6014;47.690;9.130;2023-12-20T12:52:38;7.90;99.90
11908;DHT22;6014;47.690;9.130;2023-12-20T12:55:06;7.80;99.90
11908;DHT22;6014;47.690;9.130;2023-12-20T12:57:37;7.60;99.90
11908;DHT22;6014;47.690;9.130;2023-12-20T13:00:06;7.60;99.90
11908;DHT22;6014;47.690;9.130;2023-12-20T13:02:37;7.70;99.90
11908;DHT22;6014;47.690;9.130;2023-12-20T13:05:09;7.70;99.90
11908;DHT22;6014;47.690;9.130;2023-12-20T13:07:37;7.60;99.90
11908;DHT22;6014;47.690;9.130;2023-12-20T13:10:07;7.60;99.90
11908;DHT22;6014;47.690;9.130;2023-12-20T13:12:37;7.90;99.90
11908;DHT22;6014;47.690;9.130;2023-12-20T13:15:05;8.30;99.90
11908;DHT22;6014;47.690;9.130;2023-12-20T13:17:34;8.60;99.90
11908;DHT22;6014;47.690;9.130;2023-12-20T13:20:05;8.50;99.90
11908;DHT22;6014;47.690;9.130;2023-12-20T13:22:34;8.80;99.90
11908;DHT22;6014;47.690;9.130;2023-12-20T13:25:03;9.00;99.90
11908;DHT22;6014;47.690;9.130;2023-12-20T13:27:33;9.10;99.90
11908;DHT22;6014;47.690;9.130;2023-12-20T13:30:01;9.10;99.90
11908;DHT22;6014;47.690;9.130;2023-12-20T13:32:30;8.90;99.90
11908;DHT22;6014;47.690;9.130;2023-12-20T13:34:59;9.00;99.90
11908;DHT22;6014;47.690;9.130;2023-12-20T13:37:29;8.90;99.90
11908;DHT22;6014;47.690;9.130;2023-12-20T13:39:57;8.80;99.90
11908;DHT22;6014;47.690;9.130;2023-12-20T13:42:25;8.40;99.90
11908;DHT22;6014;47.690;9.130;2023-12-20T13:44:54;8.00;99.90
11908;DHT22;6014;47.690;9.130;2023-12-20T13:47:22;7.80;99.90
11908;DHT22;6014;47.690;9.130;2023-12-20T13:49:51;7.60;99.90
11908;DHT22;6014;47.690;9.130;2023-12-20T13:52:25;7.30;99.90
11908;DHT22;6014;47.690;9.130;2023-12-20T13:54:55;7.20;99.90
11908;DHT22;6014;47.690;9.130;2023-12-20T13:57:24;7.30;99.90
11908;DHT22;6014;47.690;9.130;2023-12-20T14:00:13;7.20;99.90
11908;DHT22;6014;47.690;9.130;2023-12-20T14:02:42;7.10;99.90
11908;DHT22;6014;47.690;9.130;2023-12-20T14:05:11;7.10;99.90
11908;DHT22;6014;47.690;9.130;2023-12-20T14:07:41;6.90;99.90
11908;DHT22;6014;47.690;9.130;2023-12-20T14:10:14;6.80;99.90
11908;DHT22;6014;47.690;9.130;2023-12-20T14:12:42;6.70;99.90
11908;DHT22;6014;47.690;9.130;2023-12-20T14:15:21;6.60;99.90
11908;DHT22;6014;47.690;9.130;2023-12-20T14:17:52;6.60;99.90
11908;DHT22;6014;47.690;9.130;2023-12-20T14:20:21;6.60;99.90
11908;DHT22;6014;47.690;9.130;2023-12-20T14:22:50;6.60;99.90
11908;DHT22;6014;47.690;9.130;2023-12-20T14:25:20;6.70;99.90
11908;DHT22;6014;47.690;9.130;2023-12-20T14:27:50;6.70;99.90
11908;DHT22;6014;47.690;9.130;2023-12-20T14:30:18;6.70;99.90
11908;DHT22;6014;47.690;9.130;2023-12-20T14:32:47;6.80;99.90
11908;DHT22;6014;47.690;9.130;2023-12-20T14:35:15;6.70;99.90
11908;DHT22;6014;47.690;9.130;2023-12-20T14:37:46;6.60;99.90
11908;DHT22;6014;47.690;9.130;2023-12-20T14:40:15;6.70;98.60
11908;DHT22;6014;47.690;9.130;2023-12-20T14:42:45;6.60;98.90
11908;DHT22;6014;47.690;9.130;2023-12-20T14:45:14;6.50;98.00
11908;DHT22;6014;47.690;9.130;2023-12-20T14:47:43;6.40;97.30
11908;DHT22;6014;47.690;9.130;2023-12-20T14:50:12;6.50;95.60
11908;DHT22;6014;47.690;9.130;2023-12-20T14:52:45;6.40;95.60
11908;DHT22;6014;47.690;9.130;2023-12-20T14:55:14;6.40;95.20
11908;DHT22;6014;47.690;9.130;2023-12-20T14:57:46;6.50;95.30
11908;DHT22;6014;47.690;9.130;2023-12-20T15:00:16;6.60;94.70
11908;DHT22;6014;47.690;9.130;2023-12-20T15:02:46;6.60;95.10
11908;DHT22;6014;47.690;9.130;2023-12-20T15:05:14;6.60;94.30
11908;DHT22;6014;47.690;9.130;2023-12-20T15:07:44;6.60;94.60
11908;DHT22;6014;47.690;9.130;2023-12-20T15:10:14;6.50;95.30
11908;DHT22;6014;47.690;9.130;2023-12-20T15:12:51;6.50;94.40
11908;DHT22;6014;47.690;9.130;2023-12-20T15:15:19;6.50;93.60
11908;DHT22;6014;47.690;9.130;2023-12-20T15:17:48;6.50;94.40
11908;DHT22;6014;47.690;9.130;2023-12-20T15:20:17;6.40;95.30
11908;DHT22;6014;47.690;9.130;2023-12-20T15:22:47;6.40;96.50
11908;DHT22;6014;47.690;9.130;2023-12-20T15:25:15;6.30;97.70
11908;DHT22;6014;47.690;9.130;2023-12-20T15:27:48;6.10;99.40
11908;DHT22;6014;47.690;9.130;2023-12-20T15:30:23;6.10;99.90
11908;DHT22;6014;47.690;9.130;2023-12-20T15:32:52;5.90;99.90
11908;DHT22;6014;47.690;9.130;2023-12-20T15:35:20;5.80;99.90
11908;DHT22;6014;47.690;9.130;2023-12-20T15:37:48;5.70;99.90
11908;DHT22;6014;47.690;9.130;2023-12-20T15:40:18;5.70;99.90
11908;DHT22;6014;47.690;9.130;2023-12-20T15:42:47;5.60;99.90
11908;DHT22;6014;47.690;9.130;2023-12-20T15:45:15;5.60;99.90
11908;DHT22;6014;47.690;9.130;2023-12-20T15:47:45;5.50;99.90
11908;DHT22;6014;47.690;9.130;2023-12-20T15:50:14;5.40;99.90
11908;DHT22;6014;47.690;9.130;2023-12-20T15:52:43;5.40;99.90
11908;DHT22;6014;47.690;9.130;2023-12-20T15:55:12;5.30;99.90
11908;DHT22;6014;47.690;9.130;2023-12-20T15:57:40;5.30;99.90
11908;DHT22;6014;47.690;9.130;2023-12-20T16:00:37;5.20;99.90
11908;DHT22;6014;47.690;9.130;2023-12-20T16:03:07;5.20;99.90
11908;DHT22;6014;47.690;9.130;2023-12-20T16:05:51;5.10;99.90
11908;DHT22;6014;47.690;9.130;2023-12-20T16:08:20;5.10;99.90
11908;DHT22;6014;47.690;9.130;2023-12-20T16:10:48;5.10;99.90
11908;DHT22;6014;47.690;9.130;2023-12-20T16:13:17;5.10;99.90
11908;DHT22;6014;47.690;9.130;2023-12-20T16:15:52;5.10;99.90
11908;DHT22;6014;47.690;9.130;2023-12-20T16:18:23;5.00;99.90
11908;DHT22;6014;47.690;9.130;2023-12-20T16:20:51;5.00;99.90